05FA weather

Melanie's Airport
Florala, Florida, United States

Public forecast

Using degrees Fahrenheit for public forecast. Weather courtesy of forecast.io.

METAR (pilot weather report)

Closest report is Florala Municipal Airport, 8.8 nm (16.4 km) NNW. Retrieved 2018/07/20 18:58 UTC (18 minutes ago):

K0J4 201858Z AUTO 36005KT 10SM BKN031 31/22 A2997 RMK AO2 SLP144 T03060222

TAF (pilot weather forecast)

Closest forecast is Duke Field, 22.5 nm (41.7 km) SW. Retrieved 2018/07/20 17:15 UTC (2 hours ago):

TAF KEGI 201700Z 2017/2123 02003KT 9999 BKN028 BKN200 QNH2994INS BECMG 2020/2021 31010KT 9999 VCTS BKN040CB BKN120 BKN200 QNH2992INS TEMPO 2021/2103 30020G30KT 8000 -TSRA BKN050CB BECMG 2104/2105 28003KT 9999 NSW FEW040 SCT200 QNH2990INS BECMG 2114/2115 24010KT 9999 SCT040 BKN120 BKN200 QNH2991INS BECMG 2117/2118 24010G15KT 9999 VCTS BKN030CB BKN120 BKN200 QNH2989INS TX34/2018Z TN21/2111Z